Time;durP1;ratioP1;P1;durP2;ratioP2;P2;SDS_P1;SDS_P2;PMS_P1;PMS_P2;Temp;Humidity;BMP_temperature;BMP_pressure;BME280_temperature;BME280_humidity;BME280_pressure;Samples;Min_cycle;Max_cycle;Signal;HPM_P1;HPM_P2
2022/12/04 00:00:12;;;;;;;56.57;29.63;;;;;;;0.46;90.19;102386.06;5009275;28;20595;-74
2022/12/04 00:02:39;;;;;;;57.47;28.77;;;;;;;0.46;90.52;102394.47;5008831;28;20183;-73
2022/12/04 00:05:05;;;;;;;60.57;29.83;;;;;;;0.43;90.87;102392.59;5013011;28;20247;-74
2022/12/04 00:07:31;;;;;;;62.73;32.17;;;;;;;0.42;90.04;102387.44;5009254;28;20656;-74
2022/12/04 00:09:57;;;;;;;56.37;29.57;;;;;;;0.42;90.33;102389.97;5007495;28;20205;-73
2022/12/04 00:12:22;;;;;;;58.27;29.90;;;;;;;0.42;90.25;102392.47;5006596;28;20203;-73
2022/12/04 00:14:47;;;;;;;56.17;28.47;;;;;;;0.46;90.07;102388.56;5017725;28;20217;-74
2022/12/04 00:17:13;;;;;;;55.17;27.93;;;;;;;0.46;90.84;102388.56;5012470;28;20611;-72
2022/12/04 00:19:39;;;;;;;57.53;29.10;;;;;;;0.45;89.86;102375.09;5009665;28;20274;-74
2022/12/04 00:22:04;;;;;;;52.77;28.40;;;;;;;0.42;90.43;102384.94;5010151;28;20249;-73
2022/12/04 00:24:29;;;;;;;57.17;30.43;;;;;;;0.45;90.36;102379.25;5008814;28;20249;-72
2022/12/04 00:26:55;;;;;;;57.53;28.87;;;;;;;0.47;90.28;102382.78;5011192;28;20198;-73
2022/12/04 00:29:21;;;;;;;56.70;28.83;;;;;;;0.45;89.86;102382.66;5002044;28;20204;-74
2022/12/04 00:31:46;;;;;;;56.00;28.87;;;;;;;0.47;89.93;102375.22;5009694;28;20264;-74
2022/12/04 00:34:12;;;;;;;54.23;28.80;;;;;;;0.49;90.53;102372.06;5010101;28;20282;-74
2022/12/04 00:36:37;;;;;;;51.47;27.53;;;;;;;0.48;90.09;102370.31;5009587;28;20596;-73
2022/12/04 00:39:03;;;;;;;54.67;27.70;;;;;;;0.48;90.30;102370.31;5010225;28;20242;-73
2022/12/04 00:41:31;;;;;;;57.23;29.70;;;;;;;0.46;90.16;102359.22;5008710;28;20382;-74
2022/12/04 00:43:57;;;;;;;57.43;28.33;;;;;;;0.46;89.97;102364.25;5009770;28;20273;-73
2022/12/04 00:46:23;;;;;;;54.77;29.07;;;;;;;0.51;89.82;102365.53;5008742;28;20199;-74
2022/12/04 00:48:50;;;;;;;55.97;28.97;;;;;;;0.49;90.05;102368.69;5009519;28;20203;-74
2022/12/04 00:51:19;;;;;;;58.37;28.87;;;;;;;0.52;90.30;102362.25;5009410;28;20232;-73
2022/12/04 00:53:45;;;;;;;55.00;27.77;;;;;;;0.47;90.37;102370.19;5007800;28;20738;-73
2022/12/04 00:56:16;;;;;;;56.77;29.00;;;;;;;0.47;90.06;102369.41;5008794;28;20229;-74
2022/12/04 00:58:42;;;;;;;55.07;29.00;;;;;;;0.46;90.43;102373.47;5017921;28;20190;-73
2022/12/04 01:01:16;;;;;;;55.53;28.47;;;;;;;0.47;91.19;102371.94;5007639;28;20840;-74
2022/12/04 01:03:43;;;;;;;51.67;26.90;;;;;;;0.49;91.04;102368.69;5009335;28;20186;-72
2022/12/04 01:06:17;;;;;;;51.00;27.07;;;;;;;0.52;90.89;102379.00;5009446;28;20191;-73
2022/12/04 01:08:43;;;;;;;55.37;28.43;;;;;;;0.53;90.29;102376.63;5016835;28;20214;-73
2022/12/04 01:11:08;;;;;;;58.57;29.10;;;;;;;0.52;90.03;102373.97;5025061;28;20619;-72
2022/12/04 01:13:33;;;;;;;54.10;28.57;;;;;;;0.51;90.51;102380.66;5009835;28;20913;-74
2022/12/04 01:15:59;;;;;;;54.93;27.63;;;;;;;0.51;90.93;102378.13;5008076;28;20209;-74
2022/12/04 01:18:24;;;;;;;56.50;29.27;;;;;;;0.47;91.19;102368.56;5007080;28;20200;-74
2022/12/04 01:20:51;;;;;;;56.13;28.17;;;;;;;0.50;90.55;102375.50;5022714;28;20217;-74
2022/12/04 01:23:17;;;;;;;55.90;28.87;;;;;;;0.52;90.64;102371.44;5008285;28;20191;-74
2022/12/04 01:25:54;;;;;;;62.30;30.47;;;;;;;0.52;90.58;102370.69;5009123;28;20202;-73
2022/12/04 01:28:20;;;;;;;56.77;28.47;;;;;;;0.52;90.76;102377.38;5006868;28;20673;-73
2022/12/04 01:30:59;;;;;;;54.57;28.47;;;;;;;0.52;90.96;102368.94;5009067;28;20218;-74
2022/12/04 01:33:25;;;;;;;56.80;28.70;;;;;;;0.52;90.94;102370.69;5009180;28;20222;-74
2022/12/04 01:35:55;;;;;;;57.77;29.47;;;;;;;0.53;90.60;102364.03;5007838;28;20193;-74
2022/12/04 01:38:21;;;;;;;61.60;30.57;;;;;;;0.52;90.79;102368.16;5019955;28;20191;-74
2022/12/04 01:40:47;;;;;;;55.47;28.80;;;;;;;0.54;90.86;102354.84;5009001;28;20211;-74
2022/12/04 01:43:13;;;;;;;61.73;29.47;;;;;;;0.56;90.76;102361.78;5007591;28;20179;-74
2022/12/04 01:45:49;;;;;;;61.00;30.37;;;;;;;0.58;90.52;102365.28;5008660;28;20198;-74
2022/12/04 01:48:17;;;;;;;57.30;28.93;;;;;;;0.59;91.33;102362.00;5007446;28;20190;-74
2022/12/04 01:50:44;;;;;;;55.80;28.83;;;;;;;0.57;90.95;102352.56;5009043;28;20297;-73
2022/12/04 01:53:10;;;;;;;62.93;29.57;;;;;;;0.59;91.42;102358.63;5009914;28;20209;-73
2022/12/04 01:55:36;;;;;;;57.90;28.47;;;;;;;0.58;91.27;102365.28;5014177;28;20222;-72
2022/12/04 01:58:04;;;;;;;59.10;30.20;;;;;;;0.58;90.80;102362.75;5021347;28;20227;-74
2022/12/04 02:00:30;;;;;;;64.13;29.53;;;;;;;0.57;91.04;102363.53;5003755;28;20212;-73
2022/12/04 02:02:56;;;;;;;59.83;30.20;;;;;;;0.57;91.26;102361.88;5006911;28;20538;-74
2022/12/04 02:05:21;;;;;;;62.23;31.70;;;;;;;0.59;91.90;102359.47;5008490;28;20198;-74
2022/12/04 02:07:50;;;;;;;64.70;29.67;;;;;;;0.59;91.99;102356.09;5008915;28;20194;-74
2022/12/04 02:10:23;;;;;;;64.20;30.47;;;;;;;0.58;92.35;102360.25;5008634;28;20269;-74
2022/12/04 02:13:00;;;;;;;59.03;28.07;;;;;;;0.61;91.24;102359.63;5006407;28;20807;-73
2022/12/04 02:15:28;;;;;;;59.77;27.90;;;;;;;0.63;91.55;102358.13;5010475;28;21830;-74
2022/12/04 02:18:22;;;;;;;63.93;29.37;;;;;;;0.62;92.37;102354.72;5011980;28;20201;-74
2022/12/04 02:20:57;;;;;;;60.40;28.47;;;;;;;0.64;91.82;102354.84;5023636;22;20710;-71
2022/12/04 02:23:32;;;;;;;60.03;28.77;;;;;;;0.64;91.20;102347.28;5020129;28;20183;-73
2022/12/04 02:26:13;;;;;;;66.87;30.43;;;;;;;0.63;91.63;102346.38;5002378;28;20201;-71
2022/12/04 02:28:41;;;;;;;57.37;29.47;;;;;;;0.63;91.28;102345.53;5007438;28;20599;-71
2022/12/04 02:31:12;;;;;;;57.53;28.77;;;;;;;0.65;91.63;102341.47;5008203;28;20226;-71
2022/12/04 02:33:58;;;;;;;58.47;28.50;;;;;;;0.63;91.01;102341.34;5010233;28;20695;-72
2022/12/04 02:36:30;;;;;;;57.13;29.27;;;;;;;0.65;91.56;102339.84;5003506;28;20182;-72
2022/12/04 02:39:17;;;;;;;62.57;29.47;;;;;;;0.68;91.75;102335.03;5003494;28;20199;-73
2022/12/04 02:41:56;;;;;;;60.47;29.63;;;;;;;0.67;91.72;102337.44;5011224;28;20265;-72
2022/12/04 02:44:29;;;;;;;60.47;29.03;;;;;;;0.66;92.21;102349.16;5004293;28;20588;-72
2022/12/04 02:47:01;;;;;;;58.50;27.70;;;;;;;0.68;92.06;102341.75;5008082;28;20270;-72
2022/12/04 02:49:59;;;;;;;61.33;28.23;;;;;;;0.67;91.22;102345.88;5009555;28;20715;-73
2022/12/04 02:52:37;;;;;;;58.03;28.27;;;;;;;0.66;92.42;102345.75;5004287;28;20211;-72
2022/12/04 02:55:13;;;;;;;57.70;28.67;;;;;;;0.66;92.44;102338.19;5005340;28;20199;-73
2022/12/04 02:57:46;;;;;;;65.90;30.53;;;;;;;0.67;92.57;102339.94;5003740;28;20187;-72
2022/12/04 03:00:13;;;;;;;54.07;28.37;;;;;;;0.66;91.52;102335.69;5019231;28;20215;-71
2022/12/04 03:02:53;;;;;;;67.23;31.00;;;;;;;0.66;91.71;102343.22;5005456;28;20581;-72
2022/12/04 03:05:26;;;;;;;59.13;29.17;;;;;;;0.68;92.66;102341.75;5008282;28;20187;-71
2022/12/04 03:07:56;;;;;;;60.63;29.67;;;;;;;0.68;92.23;102339.22;5004726;28;20845;-71
2022/12/04 03:10:31;;;;;;;54.53;26.83;;;;;;;0.70;92.02;102338.59;5008924;28;20312;-72
2022/12/04 03:13:17;;;;;;;56.90;28.23;;;;;;;0.73;92.54;102340.47;5015203;28;20293;-70
2022/12/04 03:15:47;;;;;;;58.23;27.27;;;;;;;0.73;92.20;102343.00;5009913;28;20207;-71
2022/12/04 03:18:19;;;;;;;58.13;28.97;;;;;;;0.73;92.34;102345.53;5008575;28;20194;-71
2022/12/04 03:20:47;;;;;;;60.30;29.53;;;;;;;0.74;92.16;102343.13;5011640;28;20699;-72
2022/12/04 03:23:31;;;;;;;58.87;28.70;;;;;;;0.76;92.31;102344.13;5011810;28;20203;-72
2022/12/04 03:26:14;;;;;;;56.10;28.90;;;;;;;0.74;91.82;102345.66;5004512;28;20186;-71
2022/12/04 03:28:49;;;;;;;55.73;27.43;;;;;;;0.76;92.58;102339.09;5019374;28;20269;-71
2022/12/04 03:31:21;;;;;;;57.40;28.17;;;;;;;0.77;92.25;102332.41;5000213;28;20221;-71
2022/12/04 03:33:50;;;;;;;59.10;28.03;;;;;;;0.75;91.90;102332.28;5005347;28;20222;-71
2022/12/04 03:36:26;;;;;;;58.17;27.87;;;;;;;0.78;92.04;102332.50;5008870;28;20261;-72
2022/12/04 03:39:04;;;;;;;60.60;29.37;;;;;;;0.80;92.41;102331.03;5006585;28;20199;-72
2022/12/04 03:41:54;;;;;;;60.33;29.03;;;;;;;0.79;92.53;102331.78;5007678;28;20199;-72
2022/12/04 03:44:34;;;;;;;58.70;30.13;;;;;;;0.79;93.09;102330.88;5014881;28;20387;-73
2022/12/04 03:47:07;;;;;;;53.20;27.33;;;;;;;0.78;92.96;102324.94;5005258;28;20292;-72
2022/12/04 03:49:40;;;;;;;59.90;27.70;;;;;;;0.79;92.89;102329.25;5008411;28;20211;-72
2022/12/04 03:52:35;;;;;;;60.53;29.20;;;;;;;0.79;92.00;102324.22;5019002;28;20317;-71
2022/12/04 03:55:10;;;;;;;58.27;29.73;;;;;;;0.82;92.55;102321.06;5007670;28;20195;-71
2022/12/04 03:57:41;;;;;;;61.10;29.07;;;;;;;0.81;92.40;102325.22;5007127;28;20186;-71
2022/12/04 04:00:11;;;;;;;52.57;27.50;;;;;;;0.84;93.02;102328.00;5006742;28;20756;-73
2022/12/04 04:02:53;;;;;;;60.20;30.07;;;;;;;0.84;92.78;102325.47;5002251;28;20527;-73
2022/12/04 04:05:21;;;;;;;61.97;29.90;;;;;;;0.85;93.09;102326.34;5000945;28;20657;-72
2022/12/04 04:07:51;;;;;;;63.60;31.10;;;;;;;0.84;92.99;102322.94;5008057;28;20636;-73
2022/12/04 04:10:24;;;;;;;61.03;30.47;;;;;;;0.85;92.44;102324.72;4998700;28;20219;-72
2022/12/04 04:24:40;;;;;;;58.77;29.33;;;;;;;0.87;92.99;102327.38;5003239;28;20229;-73
2022/12/04 04:27:06;;;;;;;57.47;28.27;;;;;;;0.87;92.74;102328.22;5002207;28;20184;-71
2022/12/04 04:29:31;;;;;;;62.60;29.23;;;;;;;0.90;92.58;102322.53;5003385;28;20726;-74
2022/12/04 04:32:12;;;;;;;55.40;28.97;;;;;;;0.89;93.65;102321.69;5005740;28;20210;-73
2022/12/04 04:34:48;;;;;;;64.13;29.70;;;;;;;0.89;92.50;102329.25;5010069;28;20261;-74
2022/12/04 04:37:39;;;;;;;59.90;29.00;;;;;;;0.88;93.22;102319.03;5007655;28;20187;-74
2022/12/04 04:40:20;;;;;;;59.70;29.33;;;;;;;0.91;93.36;102324.34;5007403;28;20260;-72
2022/12/04 04:43:02;;;;;;;60.63;28.93;;;;;;;0.93;93.08;102330.38;5004363;28;20214;-73
2022/12/04 04:45:45;;;;;;;58.57;28.47;;;;;;;0.95;92.74;102329.72;5007526;28;20194;-73
2022/12/04 04:48:24;;;;;;;57.97;29.73;;;;;;;0.96;93.17;102330.63;5015175;28;20281;-73
2022/12/04 04:50:51;;;;;;;57.50;29.83;;;;;;;0.96;93.12;102330.63;5004906;28;20249;-71
2022/12/04 04:53:29;;;;;;;58.33;29.47;;;;;;;0.96;93.52;102334.00;5002453;28;20215;-70
2022/12/04 04:55:55;;;;;;;63.37;29.53;;;;;;;0.97;93.21;102337.44;5007149;28;20660;-72
2022/12/04 04:58:21;;;;;;;57.33;28.90;;;;;;;0.96;93.34;102328.97;5006318;28;20180;-71
2022/12/04 05:00:57;;;;;;;55.13;27.57;;;;;;;0.98;93.64;102337.56;5011560;28;20583;-73
2022/12/04 05:03:22;;;;;;;55.33;29.03;;;;;;;0.99;93.39;102335.91;5006633;28;20334;-71
2022/12/04 05:05:48;;;;;;;58.50;29.53;;;;;;;0.99;93.50;102338.41;5001575;28;20852;-71
2022/12/04 05:08:13;;;;;;;57.73;30.47;;;;;;;1.02;92.80;102331.13;5004181;28;20199;-71
2022/12/04 05:10:38;;;;;;;61.03;29.50;;;;;;;1.02;92.80;102337.06;5007357;28;20587;-70
2022/12/04 05:13:04;;;;;;;58.63;30.03;;;;;;;1.01;93.53;102329.34;5007609;28;20302;-70
2022/12/04 05:15:29;;;;;;;57.00;29.57;;;;;;;1.01;93.02;102327.69;5004401;28;20554;-71
2022/12/04 05:17:55;;;;;;;63.30;31.00;;;;;;;1.01;93.45;102331.88;5001472;28;20540;-71
2022/12/04 05:20:20;;;;;;;57.97;29.97;;;;;;;1.00;94.06;102335.16;4995767;28;20227;-71
2022/12/04 05:22:46;;;;;;;61.93;30.60;;;;;;;1.01;93.09;102330.22;5008631;28;20271;-72
2022/12/04 05:25:11;;;;;;;61.93;30.53;;;;;;;1.02;93.12;102336.16;5006709;28;20194;-71
2022/12/04 05:27:37;;;;;;;56.27;29.40;;;;;;;1.01;93.17;102339.44;5007512;28;20218;-71
2022/12/04 05:30:03;;;;;;;56.63;29.93;;;;;;;1.02;93.44;102331.13;5006484;28;20215;-72
2022/12/04 05:32:29;;;;;;;62.20;30.07;;;;;;;1.04;93.79;102342.19;5002520;28;20215;-72
2022/12/04 05:34:55;;;;;;;60.63;30.03;;;;;;;1.03;93.14;102335.38;5008171;28;20206;-72
2022/12/04 05:37:21;;;;;;;61.50;30.27;;;;;;;1.02;94.05;102334.53;5005149;28;20278;-71
2022/12/04 05:39:47;;;;;;;61.10;29.23;;;;;;;1.02;93.96;102334.53;5012691;28;20301;-72
2022/12/04 05:42:13;;;;;;;56.07;29.33;;;;;;;1.04;93.50;102337.16;5018781;28;20232;-73
2022/12/04 05:44:39;;;;;;;60.77;30.60;;;;;;;1.04;93.51;102335.53;5004785;28;20204;-72
2022/12/04 05:47:05;;;;;;;62.23;29.93;;;;;;;1.04;93.53;102339.66;5005459;28;20202;-72
2022/12/04 05:49:32;;;;;;;63.47;31.00;;;;;;;1.05;93.32;102338.94;5009326;28;20683;-71
2022/12/04 05:51:57;;;;;;;58.93;29.03;;;;;;;1.05;93.58;102337.28;5013453;28;20222;-74
2022/12/04 05:54:23;;;;;;;61.93;31.80;;;;;;;1.05;93.37;102337.28;5009441;28;20194;-73
2022/12/04 05:56:49;;;;;;;62.60;31.27;;;;;;;1.07;93.50;102330.72;5009727;28;20190;-72
2022/12/04 05:59:15;;;;;;;60.33;28.87;;;;;;;1.09;94.10;102326.69;5016582;28;20209;-74
2022/12/04 06:01:41;;;;;;;59.73;29.87;;;;;;;1.09;93.43;102324.16;5008402;28;20187;-73
2022/12/04 06:04:06;;;;;;;59.90;28.83;;;;;;;1.08;93.14;102317.38;5005399;28;20192;-74
2022/12/04 06:06:33;;;;;;;60.73;29.87;;;;;;;1.08;93.13;102322.41;5004688;28;20195;-73
2022/12/04 06:08:59;;;;;;;67.30;31.80;;;;;;;1.08;93.19;102332.50;5004524;28;20237;-73
2022/12/04 06:11:31;;;;;;;58.43;29.97;;;;;;;1.09;94.09;102334.25;5007753;28;20198;-73
2022/12/04 06:13:59;;;;;;;66.47;30.77;;;;;;;1.11;94.40;102336.91;5011836;28;20269;-73
2022/12/04 06:16:27;;;;;;;63.30;31.97;;;;;;;1.08;93.91;102335.00;5001051;28;20533;-73
2022/12/04 06:19:02;;;;;;;62.37;30.30;;;;;;;1.12;93.42;102333.59;5004103;28;20198;-72
2022/12/04 06:21:30;;;;;;;64.10;32.23;;;;;;;1.11;93.84;102332.75;5008407;28;20186;-74
2022/12/04 06:23:56;;;;;;;62.53;29.97;;;;;;;1.12;93.61;102336.13;5005657;28;20536;-73
2022/12/04 06:26:22;;;;;;;58.33;29.63;;;;;;;1.14;93.55;102337.16;5010243;28;20199;-75
2022/12/04 06:28:48;;;;;;;59.47;29.57;;;;;;;1.13;93.77;102341.31;5016745;28;20187;-74
2022/12/04 06:31:15;;;;;;;60.17;30.00;;;;;;;1.12;94.37;102338.66;5008669;28;20673;-73
2022/12/04 06:33:42;;;;;;;59.97;29.90;;;;;;;1.14;94.25;102330.44;4999718;28;20235;-73
2022/12/04 06:36:13;;;;;;;60.60;31.60;;;;;;;1.12;94.06;102326.94;5003794;28;20230;-73
2022/12/04 06:38:39;;;;;;;57.17;29.63;;;;;;;1.15;94.56;102329.69;5005833;28;20640;-72
2022/12/04 06:41:06;;;;;;;62.17;30.90;;;;;;;1.15;94.05;102332.22;5007143;28;20265;-74
2022/12/04 06:43:32;;;;;;;58.93;29.63;;;;;;;1.17;93.60;102333.22;5002831;28;20290;-73
2022/12/04 06:46:06;;;;;;;56.20;28.70;;;;;;;1.17;93.64;102343.31;5006459;28;20675;-72
2022/12/04 06:48:32;;;;;;;61.63;30.40;;;;;;;1.18;93.72;102347.59;5002682;28;20198;-72
2022/12/04 06:51:04;;;;;;;61.70;31.00;;;;;;;1.21;94.81;102344.44;5003260;28;20206;-72
2022/12/04 06:53:31;;;;;;;63.03;29.50;;;;;;;1.23;93.30;102345.47;5011310;28;20207;-72
2022/12/04 06:55:59;;;;;;;64.10;30.77;;;;;;;1.22;93.46;102339.53;5003368;28;20188;-72
2022/12/04 06:58:25;;;;;;;66.00;31.07;;;;;;;1.22;94.05;102339.53;5001901;28;20187;-72
2022/12/04 07:00:51;;;;;;;61.43;30.20;;;;;;;1.22;93.81;102326.91;5007372;28;20302;-72
2022/12/04 07:03:17;;;;;;;63.43;30.50;;;;;;;1.23;93.73;102333.72;5002791;28;20198;-73
2022/12/04 07:05:43;;;;;;;61.63;30.67;;;;;;;1.25;94.32;102331.31;5009349;28;20191;-73
2022/12/04 07:08:08;;;;;;;61.00;30.47;;;;;;;1.25;93.81;102339.78;5008969;28;20196;-73
2022/12/04 07:10:35;;;;;;;60.37;30.40;;;;;;;1.26;94.66;102336.50;5010751;28;20215;-73
2022/12/04 07:13:01;;;;;;;62.00;30.33;;;;;;;1.29;94.21;102338.38;5008594;28;20273;-73
2022/12/04 07:15:27;;;;;;;59.20;30.37;;;;;;;1.29;93.83;102336.72;5006926;28;20283;-73
2022/12/04 07:17:52;;;;;;;64.33;30.97;;;;;;;1.31;94.19;102339.38;5005779;28;20258;-73
2022/12/04 07:20:18;;;;;;;64.73;30.97;;;;;;;1.30;94.14;102346.06;5009120;28;20227;-73
2022/12/04 07:22:44;;;;;;;66.53;31.37;;;;;;;1.30;94.68;102341.03;5003257;28;20258;-73
2022/12/04 07:25:09;;;;;;;62.60;30.67;;;;;;;1.33;94.00;102346.28;5006690;28;20195;-72
2022/12/04 07:27:35;;;;;;;67.07;30.37;;;;;;;1.34;93.85;102347.19;5008258;28;20704;-72
2022/12/04 07:30:00;;;;;;;62.50;30.23;;;;;;;1.34;94.49;102347.19;5005834;28;20223;-73
2022/12/04 07:32:25;;;;;;;71.07;31.93;;;;;;;1.36;94.11;102346.53;5008300;28;20210;-73
2022/12/04 07:34:51;;;;;;;63.33;29.40;;;;;;;1.38;93.52;102349.19;5008620;28;20605;-72
2022/12/04 07:37:16;;;;;;;62.47;31.43;;;;;;;1.38;94.80;102356.75;5010701;28;20211;-73
2022/12/04 07:39:42;;;;;;;65.27;30.43;;;;;;;1.41;93.87;102355.34;5010128;28;20215;-73
2022/12/04 07:42:07;;;;;;;61.60;30.90;;;;;;;1.44;94.68;102357.25;5007782;28;20191;-72
2022/12/04 07:44:33;;;;;;;68.20;31.60;;;;;;;1.45;93.72;102354.84;5019169;28;20183;-73
2022/12/04 07:46:58;;;;;;;71.27;32.23;;;;;;;1.46;93.76;102359.13;5010572;28;20554;-74
2022/12/04 07:49:24;;;;;;;64.03;29.57;;;;;;;1.49;94.02;102358.50;5009371;28;20261;-72
2022/12/04 07:51:49;;;;;;;66.60;31.97;;;;;;;1.49;94.11;102358.50;5009971;28;20730;-71
2022/12/04 07:54:15;;;;;;;66.97;31.77;;;;;;;1.53;93.75;102360.50;5009546;28;20210;-73
2022/12/04 07:56:40;;;;;;;66.67;31.53;;;;;;;1.50;93.84;102360.25;5014887;28;20191;-73
2022/12/04 07:59:06;;;;;;;73.33;33.20;;;;;;;1.51;94.56;102362.03;5007250;28;20680;-71
2022/12/04 08:01:32;;;;;;;68.60;32.80;;;;;;;1.50;94.50;102355.19;4998544;28;20195;-73
2022/12/04 08:03:59;;;;;;;73.20;33.03;;;;;;;1.53;94.14;102361.41;5002308;28;20637;-73
2022/12/04 08:06:26;;;;;;;69.47;33.97;;;;;;;1.54;93.80;102358.09;5010103;28;20183;-73
2022/12/04 08:08:52;;;;;;;72.37;32.63;;;;;;;1.57;93.75;102359.97;5006001;28;20658;-75
2022/12/04 08:11:21;;;;;;;74.33;34.93;;;;;;;1.57;94.29;102363.41;5009853;28;20218;-73
2022/12/04 08:13:47;;;;;;;67.40;31.93;;;;;;;1.60;94.38;102360.25;5006039;28;20250;-72
2022/12/04 08:16:13;;;;;;;78.50;33.73;;;;;;;1.63;94.19;102362.97;5007266;28;20195;-71
2022/12/04 08:18:40;;;;;;;67.77;32.77;;;;;;;1.63;93.80;102361.34;5006185;28;20195;-72
2022/12/04 08:21:11;;;;;;;69.37;31.33;;;;;;;1.66;93.67;102361.56;5002445;28;20249;-71
2022/12/04 08:23:41;;;;;;;71.20;32.57;;;;;;;1.68;94.05;102365.13;5002775;28;20591;-73
2022/12/04 08:26:07;;;;;;;79.80;36.63;;;;;;;1.69;93.93;102360.97;5000754;28;20196;-72
2022/12/04 08:28:33;;;;;;;75.23;33.73;;;;;;;1.70;93.40;102355.16;5010036;28;20198;-72
2022/12/04 08:31:07;;;;;;;75.87;33.73;;;;;;;1.70;93.99;102350.97;5000424;28;20585;-72
2022/12/04 08:33:33;;;;;;;68.37;32.77;;;;;;;1.72;94.39;102348.56;5008758;28;20247;-70
2022/12/04 08:35:59;;;;;;;68.07;32.90;;;;;;;1.75;93.92;102344.63;5004958;28;20227;-72
2022/12/04 08:38:25;;;;;;;73.00;32.27;;;;;;;1.76;93.47;102345.53;5006288;28;20218;-73
2022/12/04 08:40:50;;;;;;;66.83;32.60;;;;;;;1.81;94.03;102356.84;5001165;28;20679;-72
2022/12/04 08:43:16;;;;;;;68.80;33.03;;;;;;;1.80;93.20;102350.06;5007059;28;20292;-72
2022/12/04 08:45:41;;;;;;;67.90;33.20;;;;;;;1.82;93.73;102344.34;5000425;28;20254;-72
2022/12/04 08:48:06;;;;;;;64.57;32.23;;;;;;;1.86;93.17;102346.38;5002092;28;20195;-73
2022/12/04 08:50:32;;;;;;;72.53;32.83;;;;;;;1.88;93.69;102342.28;5003698;28;20215;-73
2022/12/04 08:52:57;;;;;;;69.53;31.73;;;;;;;1.90;94.09;102343.31;5005652;28;20311;-72
2022/12/04 08:55:23;;;;;;;67.03;33.93;;;;;;;1.91;92.93;102341.66;5000144;28;20544;-73
2022/12/04 08:57:52;;;;;;;73.03;34.37;;;;;;;1.92;93.18;102340.91;5008873;28;20216;-74
2022/12/04 09:00:18;;;;;;;62.27;30.70;;;;;;;1.94;93.75;102339.38;5001302;28;20215;-73
2022/12/04 09:02:47;;;;;;;74.03;33.30;;;;;;;1.98;93.86;102342.25;5001889;28;20192;-73
2022/12/04 09:05:12;;;;;;;64.30;32.67;;;;;;;2.02;93.43;102339.19;5002142;28;20204;-72
2022/12/04 09:07:37;;;;;;;59.70;29.83;;;;;;;2.03;93.32;102343.50;5006008;28;20201;-73
2022/12/04 09:10:03;;;;;;;65.03;31.73;;;;;;;2.04;92.88;102341.84;5012870;28;20289;-72
2022/12/04 09:12:29;;;;;;;62.57;30.90;;;;;;;2.07;92.71;102352.19;4999467;28;20241;-70
2022/12/04 09:14:54;;;;;;;62.47;33.07;;;;;;;2.04;93.33;102354.47;5006136;28;20227;-72
2022/12/04 09:17:20;;;;;;;62.77;30.83;;;;;;;2.08;93.11;102352.31;4997715;28;20239;-73
2022/12/04 09:19:46;;;;;;;64.03;31.90;;;;;;;2.11;93.37;102357.59;4994021;28;20285;-71
2022/12/04 09:22:11;;;;;;;64.03;29.83;;;;;;;2.12;93.06;102354.28;4992837;28;20232;-71
2022/12/04 09:24:36;;;;;;;63.47;31.27;;;;;;;2.14;92.99;102346.81;4993745;28;20230;-73
2022/12/04 09:27:02;;;;;;;59.90;29.63;;;;;;;2.16;92.98;102348.72;4994747;28;20221;-74
2022/12/04 09:29:27;;;;;;;58.07;30.60;;;;;;;2.19;92.45;102356.53;5001431;28;20207;-72
2022/12/04 09:31:52;;;;;;;58.77;30.37;;;;;;;2.22;93.52;102356.78;5003851;28;20218;-73
2022/12/04 09:34:19;;;;;;;54.33;28.60;;;;;;;2.24;92.80;102351.81;4985676;28;20406;-72
2022/12/04 09:36:45;;;;;;;58.17;29.33;;;;;;;2.26;92.56;102342.72;4995935;28;20195;-73
2022/12/04 09:39:10;;;;;;;53.30;28.57;;;;;;;2.29;92.54;102348.03;4983166;28;20203;-72
2022/12/04 09:41:35;;;;;;;55.93;29.53;;;;;;;2.38;93.00;102334.41;4991687;28;20223;-68
2022/12/04 09:44:19;;;;;;;58.77;29.10;;;;;;;2.60;93.30;102337.81;4968979;28;20231;-69
2022/12/04 09:46:50;;;;;;;52.70;27.40;;;;;;;2.78;93.66;102329.06;4981936;28;20184;-68
2022/12/04 09:49:22;;;;;;;52.23;27.83;;;;;;;2.85;93.08;102325.34;4981720;28;20212;-72
2022/12/04 09:51:52;;;;;;;52.60;27.30;;;;;;;2.73;92.46;102327.84;4984422;28;20243;-73
2022/12/04 09:54:22;;;;;;;52.53;28.40;;;;;;;2.67;92.43;102323.97;4983710;28;20211;-72
2022/12/04 09:57:14;;;;;;;51.80;28.03;;;;;;;2.65;91.75;102325.50;4982116;28;20210;-72
2022/12/04 09:59:39;;;;;;;51.93;26.50;;;;;;;2.61;91.88;102318.44;4984130;28;20244;-72
2022/12/04 10:02:08;;;;;;;57.80;28.33;;;;;;;2.62;92.53;102325.28;4994778;28;20266;-71
2022/12/04 10:04:33;;;;;;;48.13;26.17;;;;;;;2.64;92.05;102324.63;4980936;28;20307;-72
2022/12/04 10:07:14;;;;;;;54.13;27.67;;;;;;;2.67;92.29;102314.72;4985565;28;20278;-71
2022/12/04 10:10:03;;;;;;;55.97;27.57;;;;;;;2.67;91.61;102322.31;4988581;28;20211;-72
2022/12/04 10:12:38;;;;;;;52.13;27.43;;;;;;;2.66;92.66;102323.06;4982478;28;20252;-72
2022/12/04 10:15:18;;;;;;;54.83;27.53;;;;;;;2.67;92.41;102314.72;4979409;28;20217;-72
2022/12/04 10:17:53;;;;;;;50.17;27.40;;;;;;;2.68;92.59;102311.44;4986635;28;20227;-72
2022/12/04 10:20:39;;;;;;;50.97;27.73;;;;;;;2.71;92.46;102313.31;4983377;28;20222;-72
2022/12/04 10:23:12;;;;;;;49.83;27.73;;;;;;;2.74;92.01;102309.38;4981750;28;20720;-72
2022/12/04 10:25:39;;;;;;;50.33;26.40;;;;;;;2.73;91.83;102319.34;4984171;28;20203;-72
2022/12/04 10:28:07;;;;;;;50.60;26.57;;;;;;;2.72;92.31;102312.53;4985737;28;20700;-72
2022/12/04 10:30:36;;;;;;;50.47;26.20;;;;;;;2.74;92.79;102309.38;4985853;28;20215;-72
2022/12/04 10:33:30;;;;;;;50.37;27.13;;;;;;;2.72;92.26;102305.81;4984017;28;20226;-71
2022/12/04 10:35:56;;;;;;;49.70;25.07;;;;;;;2.75;92.65;102310.25;4976309;28;20303;-71
2022/12/04 10:38:24;;;;;;;50.07;27.03;;;;;;;2.74;92.17;102301.78;4986710;28;20729;-72
2022/12/04 10:40:56;;;;;;;46.03;25.03;;;;;;;2.75;91.96;102297.63;4987742;28;20208;-72
2022/12/04 10:43:34;;;;;;;49.97;26.43;;;;;;;2.77;92.76;102302.00;4985192;28;20318;-72
2022/12/04 10:45:59;;;;;;;51.27;25.80;;;;;;;2.78;92.86;102297.81;4972955;28;20241;-72
2022/12/04 10:48:33;;;;;;;51.63;27.23;;;;;;;2.79;92.72;102305.53;4991323;28;20278;-72
2022/12/04 10:50:58;;;;;;;50.77;25.67;;;;;;;2.80;92.03;102296.31;4987822;28;20212;-72
2022/12/04 10:53:31;;;;;;;47.17;26.60;;;;;;;2.81;92.46;102298.91;4989045;28;20208;-73
2022/12/04 10:56:10;;;;;;;49.83;26.23;;;;;;;2.82;92.26;102300.69;4986065;28;20188;-73
2022/12/04 10:58:36;;;;;;;50.97;26.93;;;;;;;2.85;92.77;102305.09;4994713;28;20188;-74
2022/12/04 11:01:05;;;;;;;48.73;26.23;;;;;;;2.86;92.43;102297.63;4976293;28;20688;-72
2022/12/04 11:03:31;;;;;;;48.83;26.27;;;;;;;2.88;92.13;102296.09;4992256;28;20192;-73
2022/12/04 11:06:03;;;;;;;52.13;28.60;;;;;;;2.89;92.68;102292.78;4982011;28;20189;-72
2022/12/04 11:08:39;;;;;;;50.37;27.90;;;;;;;2.89;92.31;102282.66;4986719;28;20192;-73
2022/12/04 11:11:11;;;;;;;51.67;28.80;;;;;;;2.93;92.11;102292.22;4986380;28;20243;-72
2022/12/04 11:13:37;;;;;;;52.03;27.87;;;;;;;2.92;92.95;102287.94;4987648;28;20854;-72
2022/12/04 11:16:05;;;;;;;52.00;30.17;;;;;;;2.89;92.02;102292.78;4987001;28;20265;-72
2022/12/04 11:18:46;;;;;;;47.07;26.33;;;;;;;2.90;92.45;102292.00;4990449;28;20287;-72
2022/12/04 11:21:18;;;;;;;51.50;27.47;;;;;;;2.90;92.02;102296.19;4984914;28;20708;-72
2022/12/04 11:23:48;;;;;;;53.67;27.53;;;;;;;2.88;91.90;102291.03;4981000;28;20216;-73
2022/12/04 11:26:16;;;;;;;49.67;26.47;;;;;;;2.88;91.93;102283.44;4979299;28;20711;-72
2022/12/04 11:28:52;;;;;;;49.20;27.83;;;;;;;2.88;92.00;102280.91;5002502;28;20653;-72
2022/12/04 11:31:21;;;;;;;49.67;26.67;;;;;;;2.88;92.57;102288.50;4980239;28;20207;-72
2022/12/04 11:33:52;;;;;;;49.13;26.77;;;;;;;2.90;92.73;102286.09;5003707;28;20572;-72
2022/12/04 11:36:29;;;;;;;55.47;27.77;;;;;;;2.94;92.21;102277.94;4978063;28;20204;-72
2022/12/04 11:39:24;;;;;;;50.90;26.97;;;;;;;2.95;92.09;102280.56;4988389;28;20191;-72